createdAt,value
2017-10-12T00:00:15.486Z,0
2017-10-12T00:01:15.145Z,0
2017-10-12T00:02:15.489Z,0
2017-10-12T00:03:15.472Z,0
2017-10-12T00:04:15.129Z,0
2017-10-12T00:05:15.460Z,0
2017-10-12T00:06:15.452Z,0
2017-10-12T00:07:15.116Z,0
2017-10-12T00:08:15.446Z,0
2017-10-12T00:09:15.440Z,0
2017-10-12T00:10:15.435Z,0
2017-10-12T00:11:15.420Z,0
2017-10-12T00:12:15.417Z,0
2017-10-12T00:13:15.426Z,0
2017-10-12T00:14:15.407Z,0
2017-10-12T00:15:15.069Z,0
2017-10-12T00:16:15.071Z,0
2017-10-12T00:17:15.054Z,0
2017-10-12T00:18:15.382Z,0
2017-10-12T00:19:15.044Z,0
2017-10-12T00:20:15.367Z,0
2017-10-12T00:21:15.387Z,0
2017-10-12T00:22:15.028Z,0
2017-10-12T00:23:15.354Z,0
2017-10-12T00:24:15.015Z,0
2017-10-12T00:25:15.344Z,0
2017-10-12T00:26:15.341Z,0
2017-10-12T00:27:14.996Z,0
2017-10-12T00:28:15.335Z,0
2017-10-12T00:29:15.332Z,0
2017-10-12T00:30:15.326Z,0
2017-10-12T00:31:15.302Z,0
2017-10-12T00:32:15.303Z,0
2017-10-12T00:33:14.962Z,0
2017-10-12T00:34:15.291Z,0
2017-10-12T00:35:15.305Z,0
2017-10-12T00:36:14.948Z,0
2017-10-12T00:37:15.272Z,0
2017-10-12T00:38:15.269Z,0
2017-10-12T00:39:15.264Z,0
2017-10-12T00:40:14.921Z,0
2017-10-12T00:41:15.246Z,0
2017-10-12T00:42:14.576Z,0
2017-10-12T00:43:15.238Z,0
2017-10-12T00:44:14.899Z,0
2017-10-12T00:45:14.889Z,0
2017-10-12T00:46:15.220Z,0
2017-10-12T00:47:14.875Z,0
2017-10-12T00:48:14.876Z,0
2017-10-12T00:49:15.204Z,0
2017-10-12T00:50:14.864Z,0
2017-10-12T00:51:15.196Z,0
2017-10-12T00:52:14.842Z,0
2017-10-12T00:53:15.210Z,0
2017-10-12T00:54:15.168Z,0
2017-10-12T00:55:15.163Z,0
2017-10-12T00:56:14.828Z,0
2017-10-12T00:57:15.155Z,0
2017-10-12T00:58:15.147Z,0
2017-10-12T00:59:14.480Z,0
2017-10-12T01:00:14.803Z,0
2017-10-12T01:01:15.139Z,0
2017-10-12T01:02:15.375Z,0
2017-10-12T01:03:14.785Z,0
2017-10-12T01:04:15.116Z,0
2017-10-12T01:05:14.779Z,0
2017-10-12T01:06:15.100Z,0
2017-10-12T01:07:15.093Z,0
2017-10-12T01:08:14.764Z,0
2017-10-12T01:09:15.087Z,0
2017-10-12T01:10:14.747Z,0
2017-10-12T01:11:15.087Z,0
2017-10-12T01:12:15.064Z,0
2017-10-12T01:13:14.727Z,0
2017-10-12T01:14:14.714Z,0
2017-10-12T01:15:14.716Z,0
2017-10-12T01:16:15.050Z,0
2017-10-12T01:17:15.032Z,0
2017-10-12T01:18:15.041Z,0
2017-10-12T01:19:15.026Z,0
2017-10-12T01:20:15.025Z,0
2017-10-12T01:21:15.011Z,0
2017-10-12T01:22:15.032Z,0
2017-10-12T01:23:15.003Z,0
2017-10-12T01:24:14.994Z,0
2017-10-12T01:25:14.993Z,0
2017-10-12T01:26:15.017Z,0
2017-10-12T01:27:14.639Z,0
2017-10-12T01:28:14.661Z,0
2017-10-12T01:29:14.962Z,0
2017-10-12T01:30:14.623Z,0
2017-10-12T01:31:14.948Z,0
2017-10-12T01:32:14.947Z,0
2017-10-12T01:33:14.610Z,0
2017-10-12T01:34:14.932Z,0
2017-10-12T01:35:14.928Z,0
2017-10-12T01:36:14.590Z,0
2017-10-12T01:37:14.915Z,0
2017-10-12T01:38:14.913Z,0
2017-10-12T01:39:14.904Z,0
2017-10-12T01:40:14.567Z,0
2017-10-12T01:41:14.904Z,0
2017-10-12T01:42:14.559Z,0
2017-10-12T01:43:14.881Z,0
2017-10-12T01:44:14.558Z,0
2017-10-12T01:45:14.869Z,0
2017-10-12T01:46:14.862Z,0
2017-10-12T01:47:14.524Z,0
2017-10-12T01:48:14.850Z,0
2017-10-12T01:49:14.847Z,0
2017-10-12T01:50:14.173Z,0
2017-10-12T01:51:14.829Z,0
2017-10-12T01:52:14.161Z,0
2017-10-12T01:53:14.824Z,0
2017-10-12T01:54:14.815Z,0
2017-10-12T01:55:14.816Z,0
2017-10-12T01:56:14.135Z,0
2017-10-12T01:57:14.796Z,0
2017-10-12T01:58:14.784Z,0
2017-10-12T01:59:14.779Z,0
2017-10-12T02:00:14.448Z,0
2017-10-12T02:01:14.766Z,0
2017-10-12T02:02:14.761Z,0
2017-10-12T02:03:14.760Z,0
2017-10-12T02:04:14.748Z,0
2017-10-12T02:05:14.410Z,0
2017-10-12T02:06:14.743Z,0
2017-10-12T02:07:14.395Z,0
2017-10-12T02:08:14.721Z,0
2017-10-12T02:09:14.385Z,0
2017-10-12T02:10:14.042Z,0
2017-10-12T02:11:14.367Z,0
2017-10-12T02:12:14.362Z,0
2017-10-12T02:13:14.696Z,0
2017-10-12T02:14:14.677Z,0
2017-10-12T02:15:14.677Z,0
2017-10-12T02:16:14.332Z,0
2017-10-12T02:17:14.009Z,0
2017-10-12T02:18:14.647Z,0
2017-10-12T02:19:14.643Z,0
2017-10-12T02:20:14.650Z,0
2017-10-12T02:21:14.304Z,0
2017-10-12T02:22:14.297Z,0
2017-10-12T02:23:14.617Z,0
2017-10-12T02:24:14.616Z,0
2017-10-12T02:25:14.275Z,0
2017-10-12T02:26:14.590Z,0
2017-10-12T02:27:14.591Z,0
2017-10-12T02:28:14.256Z,0
2017-10-12T02:29:14.570Z,0
2017-10-12T02:30:14.570Z,0
2017-10-12T02:31:14.579Z,0
2017-10-12T02:32:14.240Z,0
2017-10-12T02:33:14.555Z,0
2017-10-12T02:34:14.206Z,0
2017-10-12T02:35:14.534Z,0
2017-10-12T02:36:14.529Z,0
2017-10-12T02:37:14.190Z,0
2017-10-12T02:38:14.516Z,0
2017-10-12T02:39:14.509Z,0
2017-10-12T02:40:14.504Z,0
2017-10-12T02:41:14.498Z,0
2017-10-12T02:42:14.498Z,0
2017-10-12T02:43:14.497Z,0
2017-10-12T02:44:14.464Z,0
2017-10-12T02:45:14.466Z,0
2017-10-12T02:46:14.480Z,0
2017-10-12T02:47:14.459Z,0
2017-10-12T02:48:14.114Z,0
2017-10-12T02:49:14.435Z,0
2017-10-12T02:50:14.439Z,0
2017-10-12T02:51:14.420Z,0
2017-10-12T02:52:14.083Z,0
2017-10-12T02:53:14.433Z,0
2017-10-12T02:54:14.392Z,0
2017-10-12T02:55:14.388Z,0
2017-10-12T02:56:14.047Z,0
2017-10-12T02:57:14.393Z,0
2017-10-12T02:58:14.362Z,0
2017-10-12T02:59:14.363Z,0
2017-10-12T03:00:14.023Z,0
2017-10-12T03:01:14.010Z,0
2017-10-12T03:02:14.337Z,0
2017-10-12T03:03:13.994Z,0
2017-10-12T03:04:14.336Z,0
2017-10-12T03:05:13.659Z,0
2017-10-12T03:06:14.305Z,0
2017-10-12T03:07:14.303Z,0
2017-10-12T03:08:13.300Z,0
2017-10-12T03:09:13.957Z,0
2017-10-12T03:10:14.282Z,0
2017-10-12T03:11:14.265Z,0
2017-10-12T03:12:14.270Z,0
2017-10-12T03:13:14.254Z,0
2017-10-12T03:14:13.916Z,0
2017-10-12T03:15:14.247Z,0
2017-10-12T03:16:14.239Z,0
2017-10-12T03:17:13.892Z,0
2017-10-12T03:18:13.889Z,0
2017-10-12T03:19:14.213Z,0
2017-10-12T03:20:14.210Z,0
2017-10-12T03:21:14.191Z,0
2017-10-12T03:22:14.194Z,0
2017-10-12T03:23:13.852Z,0
2017-10-12T03:24:14.180Z,0
2017-10-12T03:25:14.171Z,0
2017-10-12T03:26:14.161Z,0
2017-10-12T03:27:13.824Z,0
2017-10-12T03:28:13.815Z,0
2017-10-12T03:29:14.155Z,0
2017-10-12T03:30:14.140Z,0
2017-10-12T03:31:14.137Z,0
2017-10-12T03:32:13.785Z,0
2017-10-12T03:33:14.122Z,0
2017-10-12T03:34:14.107Z,0
2017-10-12T03:35:14.102Z,0
2017-10-12T03:36:13.757Z,0
2017-10-12T03:37:14.081Z,0
2017-10-12T03:38:14.080Z,0
2017-10-12T03:39:14.068Z,0
2017-10-12T03:40:14.059Z,0
2017-10-12T03:41:13.725Z,0
2017-10-12T03:42:14.048Z,0
2017-10-12T03:43:14.041Z,0
2017-10-12T03:44:14.040Z,0
2017-10-12T03:45:14.028Z,0
2017-10-12T03:46:14.016Z,0
2017-10-12T03:47:14.016Z,0
2017-10-12T03:48:14.030Z,0
2017-10-12T03:49:14.001Z,0
2017-10-12T03:50:13.990Z,0
2017-10-12T03:51:14.005Z,0
2017-10-12T03:52:13.976Z,0
2017-10-12T03:53:13.974Z,0
2017-10-12T03:54:13.629Z,0
2017-10-12T03:55:13.961Z,0
2017-10-12T03:56:13.647Z,0
2017-10-12T03:57:13.946Z,0
2017-10-12T03:58:13.614Z,0
2017-10-12T03:59:13.937Z,0
2017-10-12T04:00:13.587Z,0
2017-10-12T04:01:13.584Z,0
2017-10-12T04:02:13.576Z,0
2017-10-12T04:03:13.906Z,0
2017-10-12T04:04:13.235Z,0
2017-10-12T04:05:13.898Z,0
2017-10-12T04:06:13.552Z,0
2017-10-12T04:07:13.874Z,0
2017-10-12T04:08:13.884Z,0
2017-10-12T04:09:13.535Z,0
2017-10-12T04:10:13.529Z,0
2017-10-12T04:11:13.520Z,0
2017-10-12T04:12:13.840Z,0
2017-10-12T04:13:13.852Z,0
2017-10-12T04:14:13.498Z,0
2017-10-12T04:15:13.830Z,0
2017-10-12T04:16:13.823Z,0
2017-10-12T04:17:13.818Z,0
2017-10-12T04:18:13.802Z,0
2017-10-12T04:19:13.464Z,0
2017-10-12T04:20:13.789Z,28
2017-10-12T04:21:13.782Z,40
2017-10-12T04:22:13.776Z,40
2017-10-12T04:23:13.772Z,40
2017-10-12T04:24:13.434Z,44
2017-10-12T04:25:13.756Z,44
2017-10-12T04:26:13.750Z,44
2017-10-12T04:27:13.744Z,44
2017-10-12T04:28:13.403Z,44
2017-10-12T04:29:13.728Z,44
2017-10-12T04:30:13.754Z,44
2017-10-12T04:31:13.384Z,44
2017-10-12T04:32:13.383Z,44
2017-10-12T04:33:13.706Z,44
2017-10-12T04:34:13.368Z,44
2017-10-12T04:35:13.686Z,44
2017-10-12T04:36:13.685Z,44
2017-10-12T04:37:13.014Z,44
2017-10-12T04:38:13.670Z,44
2017-10-12T04:39:13.675Z,44
2017-10-12T04:40:13.662Z,44
2017-10-12T04:41:13.677Z,44
2017-10-12T04:42:13.652Z,44
2017-10-12T04:43:13.656Z,0
2017-10-12T04:44:13.640Z,0
2017-10-12T04:45:13.296Z,0
2017-10-12T04:46:13.625Z,0
2017-10-12T04:47:13.613Z,0
2017-10-12T04:48:13.621Z,0
2017-10-12T04:49:13.617Z,0
2017-10-12T04:50:13.264Z,0
2017-10-12T04:51:13.595Z,0
2017-10-12T04:52:13.248Z,0
2017-10-12T04:53:13.249Z,0
2017-10-12T04:54:13.590Z,0
2017-10-12T04:55:13.564Z,0
2017-10-12T04:56:13.232Z,0
2017-10-12T04:57:13.554Z,0
2017-10-12T04:58:13.547Z,0
2017-10-12T04:59:13.545Z,4
2017-10-12T05:00:13.531Z,4
2017-10-12T05:01:13.530Z,4
2017-10-12T05:02:13.524Z,4
2017-10-12T05:03:13.512Z,8
2017-10-12T05:04:13.174Z,4
2017-10-12T05:05:13.511Z,8
2017-10-12T05:06:13.497Z,8
2017-10-12T05:07:13.487Z,8
2017-10-12T05:08:12.821Z,12
2017-10-12T05:09:13.144Z,16
2017-10-12T05:10:13.473Z,16
2017-10-12T05:11:13.464Z,20
2017-10-12T05:12:13.460Z,20
2017-10-12T05:13:13.119Z,20
2017-10-12T05:14:13.128Z,24
2017-10-12T05:15:13.438Z,28
2017-10-12T05:16:13.102Z,32
2017-10-12T05:17:13.128Z,32
2017-10-12T05:18:13.423Z,40
2017-10-12T05:19:13.083Z,44
2017-10-12T05:20:13.404Z,52
2017-10-12T05:21:13.410Z,52
2017-10-12T05:22:13.402Z,52
2017-10-12T05:23:13.393Z,44
2017-10-12T05:24:13.070Z,48
2017-10-12T05:25:13.386Z,48
2017-10-12T05:26:13.385Z,52
2017-10-12T05:27:13.368Z,64
2017-10-12T05:28:13.401Z,72
2017-10-12T05:29:13.025Z,80
2017-10-12T05:30:13.354Z,100
2017-10-12T05:31:13.336Z,108
2017-10-12T05:32:13.006Z,120
2017-10-12T05:33:13.325Z,140
2017-10-12T05:34:13.324Z,136
2017-10-12T05:35:12.991Z,148
2017-10-12T05:36:12.984Z,168
2017-10-12T05:37:13.305Z,192
2017-10-12T05:38:13.323Z,232
2017-10-12T05:39:13.297Z,256
2017-10-12T05:40:13.300Z,276
2017-10-12T05:41:12.955Z,300
2017-10-12T05:42:13.302Z,320
2017-10-12T05:43:13.276Z,356
2017-10-12T05:44:12.934Z,396
2017-10-12T05:45:13.264Z,440
2017-10-12T05:46:13.258Z,480
2017-10-12T05:47:13.244Z,472
2017-10-12T05:48:13.237Z,512
2017-10-12T05:49:13.244Z,548
2017-10-12T05:50:13.226Z,552
2017-10-12T05:51:12.894Z,584
2017-10-12T05:52:13.214Z,588
2017-10-12T05:53:13.208Z,608
2017-10-12T05:54:12.873Z,600
2017-10-12T05:55:13.205Z,544
2017-10-12T05:56:13.197Z,568
2017-10-12T05:57:12.857Z,580
2017-10-12T05:58:12.849Z,732
2017-10-12T05:59:13.181Z,760
2017-10-12T06:00:12.499Z,784
2017-10-12T06:01:13.156Z,964
2017-10-12T06:02:13.174Z,1060
2017-10-12T06:03:12.814Z,1056
2017-10-12T06:04:13.146Z,1132
2017-10-12T06:05:12.805Z,1228
2017-10-12T06:06:12.802Z,1364
2017-10-12T06:07:12.793Z,1500
2017-10-12T06:08:12.781Z,1776
2017-10-12T06:09:12.782Z,2136
2017-10-12T06:10:12.770Z,2740
2017-10-12T06:11:13.111Z,3032
2017-10-12T06:12:13.107Z,3152
2017-10-12T06:13:13.089Z,3152
2017-10-12T06:14:12.756Z,3304
2017-10-12T06:15:12.745Z,3420
2017-10-12T06:16:12.404Z,3188
2017-10-12T06:17:12.398Z,2808
2017-10-12T06:18:12.729Z,2380
2017-10-12T06:19:13.063Z,1720
2017-10-12T06:20:12.382Z,1768
2017-10-12T06:21:12.732Z,1684
2017-10-12T06:22:12.705Z,1504
2017-10-12T06:23:12.707Z,1600
2017-10-12T06:24:12.361Z,1752
2017-10-12T06:25:13.026Z,2000
2017-10-12T06:26:12.683Z,2272
2017-10-12T06:27:13.017Z,2472
2017-10-12T06:28:13.000Z,2468
2017-10-12T06:29:12.663Z,2308
2017-10-12T06:30:12.989Z,2252
2017-10-12T06:31:12.993Z,2460
2017-10-12T06:32:12.984Z,2664
2017-10-12T06:33:12.640Z,2980
2017-10-12T06:34:12.976Z,3116
2017-10-12T06:35:12.638Z,3160
2017-10-12T06:36:12.969Z,2860
2017-10-12T06:37:12.954Z,2880
2017-10-12T06:38:12.611Z,3012
2017-10-12T06:39:12.603Z,2920
2017-10-12T06:40:12.954Z,3144
2017-10-12T06:41:12.932Z,2980
2017-10-12T06:42:12.923Z,3104
2017-10-12T06:43:12.922Z,3176
2017-10-12T06:44:12.933Z,2972
2017-10-12T06:45:12.911Z,2532
2017-10-12T06:46:12.238Z,2712
2017-10-12T06:47:12.564Z,3740
2017-10-12T06:48:12.222Z,4164
2017-10-12T06:49:12.885Z,3240
2017-10-12T06:50:12.228Z,2716
2017-10-12T06:51:12.543Z,2228
2017-10-12T06:52:12.551Z,2248
2017-10-12T06:53:12.530Z,3216
2017-10-12T06:54:12.523Z,3136
2017-10-12T06:55:12.851Z,3664
2017-10-12T06:56:12.860Z,3892
2017-10-12T06:57:12.842Z,4112
2017-10-12T06:58:12.865Z,4228
2017-10-12T06:59:12.829Z,3968
2017-10-12T07:00:12.852Z,5224
2017-10-12T07:01:12.487Z,5988
2017-10-12T07:02:12.817Z,6224
2017-10-12T07:03:12.149Z,6156
2017-10-12T07:04:12.807Z,5720
2017-10-12T07:05:12.810Z,4032
2017-10-12T07:06:12.795Z,4412
2017-10-12T07:07:12.146Z,4436
2017-10-12T07:08:12.780Z,6088
2017-10-12T07:09:12.793Z,5824
2017-10-12T07:10:12.111Z,4784
2017-10-12T07:11:12.767Z,5772
2017-10-12T07:12:12.434Z,6308
2017-10-12T07:13:12.429Z,4876
2017-10-12T07:14:12.760Z,4012
2017-10-12T07:15:12.423Z,3192
2017-10-12T07:16:12.752Z,3392
2017-10-12T07:17:12.744Z,3584
2017-10-12T07:18:12.736Z,3400
2017-10-12T07:19:12.758Z,3420
2017-10-12T07:20:12.405Z,3204
2017-10-12T07:21:12.395Z,4512
2017-10-12T07:22:12.717Z,4084
2017-10-12T07:23:12.378Z,3948
2017-10-12T07:24:12.041Z,3576
2017-10-12T07:25:12.730Z,3316
2017-10-12T07:26:12.368Z,2916
2017-10-12T07:27:12.367Z,2696
2017-10-12T07:28:12.372Z,2412
2017-10-12T07:29:12.350Z,1880
2017-10-12T07:30:12.348Z,1360
2017-10-12T07:31:12.011Z,884
2017-10-12T07:32:12.005Z,848
2017-10-12T07:33:12.667Z,1184
2017-10-12T07:34:11.999Z,1668
2017-10-12T07:35:12.653Z,1444
2017-10-12T07:36:11.981Z,1424
2017-10-12T07:37:12.322Z,1432
2017-10-12T07:38:12.303Z,2008
2017-10-12T07:39:12.306Z,3344
2017-10-12T07:40:12.295Z,4684
2017-10-12T07:41:12.291Z,4712
2017-10-12T07:42:12.290Z,4880
2017-10-12T07:43:12.615Z,5756
2017-10-12T07:44:12.270Z,5532
2017-10-12T07:45:12.609Z,4796
2017-10-12T07:46:13.187Z,6120
2017-10-12T07:47:12.588Z,6852
2017-10-12T07:48:11.927Z,6128
2017-10-12T07:49:12.812Z,6272
2017-10-12T07:50:12.576Z,6876
2017-10-12T07:51:12.578Z,6836
2017-10-12T07:52:11.900Z,7180
2017-10-12T07:53:11.896Z,7500
2017-10-12T07:54:12.551Z,8468
2017-10-12T07:55:12.419Z,9128
2017-10-12T07:56:12.211Z,10536
2017-10-12T07:57:12.554Z,10276
2017-10-12T07:58:12.211Z,9276
2017-10-12T07:59:12.536Z,7764
2017-10-12T08:00:12.537Z,7608
2017-10-12T08:01:12.523Z,11500
2017-10-12T08:02:11.855Z,12600
2017-10-12T08:03:12.509Z,15084
2017-10-12T08:04:12.507Z,17760
2017-10-12T08:05:12.168Z,17440
2017-10-12T08:06:12.175Z,15176
2017-10-12T08:07:12.158Z,13680
2017-10-12T08:08:12.488Z,12136
2017-10-12T08:09:12.489Z,12120
2017-10-12T08:10:12.486Z,12908
2017-10-12T08:11:12.349Z,14408
2017-10-12T08:12:12.478Z,12688
2017-10-12T08:13:12.474Z,9332
2017-10-12T08:14:12.468Z,8496
2017-10-12T08:15:12.132Z,7980
2017-10-12T08:16:11.792Z,8244
2017-10-12T08:17:11.791Z,10116
2017-10-12T08:18:11.787Z,10940
2017-10-12T08:19:12.448Z,11596
2017-10-12T08:20:12.479Z,11240
2017-10-12T08:21:12.117Z,13880
2017-10-12T08:22:12.110Z,12716
2017-10-12T08:23:12.432Z,11864
2017-10-12T08:24:12.118Z,11900
2017-10-12T08:25:12.422Z,13640
2017-10-12T08:26:12.434Z,13388
2017-10-12T08:27:12.423Z,10072
2017-10-12T08:28:12.430Z,8132
2017-10-12T08:29:12.085Z,7352
2017-10-12T08:30:12.415Z,6924
2017-10-12T08:31:12.082Z,7944
2017-10-12T08:32:12.073Z,10864
2017-10-12T08:33:12.076Z,9484
2017-10-12T08:34:12.069Z,11088
2017-10-12T08:35:12.395Z,11352
2017-10-12T08:36:12.410Z,13292
2017-10-12T08:37:12.388Z,8508
2017-10-12T08:38:12.389Z,8576
2017-10-12T08:39:12.387Z,9584
2017-10-12T08:40:12.380Z,10160
2017-10-12T08:41:12.378Z,11196
2017-10-12T08:42:12.375Z,7904
2017-10-12T08:43:12.372Z,8816
2017-10-12T08:44:12.374Z,7088
2017-10-12T08:45:12.366Z,7068
2017-10-12T08:46:12.366Z,8460
2017-10-12T08:47:12.029Z,8696
2017-10-12T08:48:11.692Z,9656
2017-10-12T08:49:12.334Z,12000
2017-10-12T08:50:12.022Z,12472
2017-10-12T08:51:12.345Z,11868
2017-10-12T08:52:11.397Z,10104
2017-10-12T08:53:12.012Z,12972
2017-10-12T08:54:12.342Z,12208
2017-10-12T08:55:12.347Z,8860
2017-10-12T08:56:12.006Z,9808
2017-10-12T08:57:12.000Z,12880
2017-10-12T08:58:12.333Z,11508
2017-10-12T08:59:11.996Z,11160
2017-10-12T09:00:11.657Z,11484
2017-10-12T09:01:12.320Z,12164
2017-10-12T09:02:12.322Z,12196
2017-10-12T09:03:12.314Z,11812
2017-10-12T09:04:12.316Z,11624
2017-10-12T09:05:11.316Z,12932
2017-10-12T09:06:11.650Z,10584
2017-10-12T09:07:12.305Z,11984
2017-10-12T09:08:12.304Z,15836
2017-10-12T09:09:11.969Z,13896
2017-10-12T09:10:11.634Z,11980
2017-10-12T09:11:12.298Z,10752
2017-10-12T09:12:11.981Z,8760
2017-10-12T09:13:12.294Z,9900
2017-10-12T09:14:11.962Z,9800
2017-10-12T09:15:11.952Z,10244
2017-10-12T09:16:11.956Z,9072
2017-10-12T09:17:12.284Z,9540
2017-10-12T09:18:12.284Z,11760
2017-10-12T09:19:11.946Z,9084
2017-10-12T09:20:12.275Z,7672
2017-10-12T09:21:11.942Z,7804
2017-10-12T09:22:12.275Z,7700
2017-10-12T09:23:11.938Z,7224
2017-10-12T09:24:12.276Z,8552
2017-10-12T09:25:12.264Z,6000
2017-10-12T09:26:11.598Z,5260
2017-10-12T09:27:12.268Z,5204
2017-10-12T09:28:12.460Z,6076
2017-10-12T09:29:11.592Z,5588
2017-10-12T09:30:12.266Z,5892
2017-10-12T09:31:12.271Z,9972
2017-10-12T09:32:11.925Z,11864
2017-10-12T09:33:12.655Z,12896
2017-10-12T09:34:12.140Z,15084
2017-10-12T09:35:11.908Z,11668
2017-10-12T09:36:12.236Z,8676
2017-10-12T09:37:12.331Z,8276
2017-10-12T09:38:11.569Z,7456
2017-10-12T09:39:12.233Z,8580
2017-10-12T09:40:11.896Z,10044
2017-10-12T09:41:12.099Z,9720
2017-10-12T09:42:12.425Z,11076
2017-10-12T09:43:12.442Z,12576
2017-10-12T09:44:11.891Z,10700
2017-10-12T09:45:12.219Z,10316
2017-10-12T09:46:11.885Z,11768
2017-10-12T09:47:12.216Z,13656
2017-10-12T09:48:11.746Z,15120
2017-10-12T09:49:12.407Z,15056
2017-10-12T09:50:11.873Z,13448
2017-10-12T09:51:12.208Z,11296
2017-10-12T09:52:12.197Z,10164
2017-10-12T09:53:12.415Z,11164
2017-10-12T09:54:11.531Z,13340
2017-10-12T09:55:12.195Z,14040
2017-10-12T09:56:11.851Z,12340
2017-10-12T09:57:12.189Z,11800
2017-10-12T09:58:11.850Z,12112
2017-10-12T09:59:12.185Z,11960
2017-10-12T10:00:11.859Z,10876
2017-10-12T10:01:11.843Z,10188
2017-10-12T10:02:11.857Z,11656
2017-10-12T10:03:11.842Z,12604
2017-10-12T10:04:11.842Z,12468
2017-10-12T10:05:12.179Z,12996
2017-10-12T10:06:12.165Z,12344
2017-10-12T10:07:12.166Z,12212
2017-10-12T10:08:12.166Z,11952
2017-10-12T10:09:12.188Z,10772
2017-10-12T10:10:12.158Z,11180
2017-10-12T10:11:12.168Z,10952
2017-10-12T10:12:12.164Z,12052
2017-10-12T10:13:12.156Z,12160
2017-10-12T10:14:12.162Z,12284
2017-10-12T10:15:12.153Z,13392
2017-10-12T10:16:11.814Z,12032
2017-10-12T10:17:12.148Z,12012
2017-10-12T10:18:12.156Z,11408
2017-10-12T10:19:12.174Z,11692
2017-10-12T10:20:12.149Z,12532
2017-10-12T10:21:12.157Z,12044
2017-10-12T10:22:11.814Z,11192
2017-10-12T10:23:12.137Z,12760
2017-10-12T10:24:12.136Z,15044
2017-10-12T10:25:12.345Z,13940
2017-10-12T10:26:11.798Z,12700
2017-10-12T10:27:12.136Z,14096
2017-10-12T10:28:11.805Z,14648
2017-10-12T10:29:11.793Z,15276
2017-10-12T10:30:11.802Z,15588
2017-10-12T10:31:12.511Z,16448
2017-10-12T10:32:11.791Z,15512
2017-10-12T10:33:12.127Z,15484
2017-10-12T10:34:11.131Z,15668
2017-10-12T10:35:11.790Z,16160
2017-10-12T10:36:12.121Z,15192
2017-10-12T10:37:12.139Z,14348
2017-10-12T10:38:12.126Z,13696
2017-10-12T10:39:12.115Z,13800
2017-10-12T10:40:12.120Z,14208
2017-10-12T10:41:12.123Z,14396
2017-10-12T10:42:12.111Z,14664
2017-10-12T10:43:11.779Z,14112
2017-10-12T10:44:12.156Z,12152
2017-10-12T10:45:12.110Z,12996
2017-10-12T10:46:11.783Z,10852
2017-10-12T10:47:12.109Z,7692
2017-10-12T10:48:12.131Z,4928
2017-10-12T10:49:12.005Z,4012
2017-10-12T10:50:11.800Z,4288
2017-10-12T10:51:12.112Z,4676
2017-10-12T10:52:11.772Z,4732
2017-10-12T10:53:11.769Z,5804
2017-10-12T10:54:12.104Z,6364
2017-10-12T10:55:11.778Z,6228
2017-10-12T10:56:12.106Z,6940
2017-10-12T10:57:12.097Z,6580
2017-10-12T10:58:11.766Z,9504
2017-10-12T10:59:12.094Z,12152
2017-10-12T11:00:12.091Z,10416
2017-10-12T11:01:12.090Z,10200
2017-10-12T11:02:11.423Z,11196
2017-10-12T11:03:11.425Z,9328
2017-10-12T11:04:11.641Z,8720
2017-10-12T11:05:13.496Z,7252
2017-10-12T11:06:11.750Z,6284
2017-10-12T11:07:12.075Z,5780
2017-10-12T11:08:11.764Z,6272
2017-10-12T11:09:12.082Z,9080
2017-10-12T11:10:12.070Z,8712
2017-10-12T11:11:12.070Z,8752
2017-10-12T11:12:12.067Z,9340
2017-10-12T11:13:11.735Z,8520
2017-10-12T11:14:12.062Z,7872
2017-10-12T11:15:12.064Z,9680
2017-10-12T11:16:12.077Z,10172
2017-10-12T11:17:12.057Z,10824
2017-10-12T11:18:12.054Z,10180
2017-10-12T11:19:11.719Z,7316
2017-10-12T11:20:12.046Z,7572
2017-10-12T11:21:12.048Z,7296
2017-10-12T11:22:12.043Z,5768
2017-10-12T11:23:12.043Z,5004
2017-10-12T11:24:12.061Z,5756
2017-10-12T11:25:12.316Z,6668
2017-10-12T11:26:11.710Z,6944
2017-10-12T11:27:12.032Z,6224
2017-10-12T11:28:12.259Z,5852
2017-10-12T11:29:12.028Z,4896
2017-10-12T11:30:12.028Z,4704
2017-10-12T11:31:11.690Z,6656
2017-10-12T11:32:11.685Z,6256
2017-10-12T11:33:11.686Z,6812
2017-10-12T11:34:11.553Z,8396
2017-10-12T11:35:11.672Z,9916
2017-10-12T11:36:11.672Z,8924
2017-10-12T11:37:12.000Z,7956
2017-10-12T11:38:11.543Z,7464
2017-10-12T11:39:11.667Z,7420
2017-10-12T11:40:11.666Z,6568
2017-10-12T11:41:11.986Z,6712
2017-10-12T11:42:11.656Z,7504
2017-10-12T11:43:12.200Z,8160
2017-10-12T11:44:10.980Z,8644
2017-10-12T11:45:11.975Z,8720
2017-10-12T11:46:11.667Z,7812
2017-10-12T11:47:11.639Z,5456
2017-10-12T11:48:12.021Z,4708
2017-10-12T11:49:11.971Z,4576
2017-10-12T11:50:11.991Z,4524
2017-10-12T11:51:11.960Z,4620
2017-10-12T11:52:11.289Z,4728
2017-10-12T11:53:11.951Z,4984
2017-10-12T11:54:11.944Z,5100
2017-10-12T11:55:11.949Z,5304
2017-10-12T11:56:11.611Z,5464
2017-10-12T11:57:11.939Z,5516
2017-10-12T11:58:11.606Z,5324
2017-10-12T11:59:11.945Z,5284
2017-10-12T12:00:11.286Z,5456
2017-10-12T12:01:11.614Z,5528
2017-10-12T12:02:11.922Z,5856
2017-10-12T12:03:11.919Z,6072
2017-10-12T12:04:11.911Z,5812
2017-10-12T12:05:11.912Z,5760
2017-10-12T12:06:11.906Z,5640
2017-10-12T12:07:11.905Z,5384
2017-10-12T12:08:11.239Z,5444
2017-10-12T12:09:11.890Z,5424
2017-10-12T12:10:11.225Z,5772
2017-10-12T12:11:11.885Z,6984
2017-10-12T12:12:11.547Z,7100
2017-10-12T12:13:11.874Z,6652
2017-10-12T12:14:11.534Z,7100
2017-10-12T12:15:11.872Z,7604
2017-10-12T12:16:11.197Z,7636
2017-10-12T12:17:11.867Z,7704
2017-10-12T12:18:11.534Z,7820
2017-10-12T12:19:11.857Z,7268
2017-10-12T12:20:11.845Z,6600
2017-10-12T12:21:11.859Z,6492
2017-10-12T12:22:11.508Z,7232
2017-10-12T12:23:11.834Z,7072
2017-10-12T12:24:11.541Z,6592
2017-10-12T12:25:11.495Z,7764
2017-10-12T12:26:11.492Z,9856
2017-10-12T12:27:11.487Z,10140
2017-10-12T12:28:11.825Z,12232
2017-10-12T12:29:11.820Z,14504
2017-10-12T12:30:11.824Z,16512
2017-10-12T12:31:11.140Z,14484
2017-10-12T12:32:11.806Z,11792
2017-10-12T12:33:11.467Z,9332
2017-10-12T12:34:11.125Z,8108
2017-10-12T12:35:11.798Z,8444
2017-10-12T12:36:11.125Z,8960
2017-10-12T12:37:11.147Z,7764
2017-10-12T12:38:11.450Z,8264
2017-10-12T12:39:11.445Z,8492
2017-10-12T12:40:11.436Z,8048
2017-10-12T12:41:11.441Z,8536
2017-10-12T12:42:11.104Z,8156
2017-10-12T12:43:11.427Z,7224
2017-10-12T12:44:11.423Z,6744
2017-10-12T12:45:11.756Z,6360
2017-10-12T12:46:11.760Z,6248
2017-10-12T12:47:11.752Z,6192
2017-10-12T12:48:11.422Z,6028
2017-10-12T12:49:11.745Z,6072
2017-10-12T12:50:11.408Z,6232
2017-10-12T12:51:11.405Z,6532
2017-10-12T12:52:11.404Z,6592
2017-10-12T12:53:11.734Z,6468
2017-10-12T12:54:11.728Z,6748
2017-10-12T12:55:11.387Z,6924
2017-10-12T12:56:11.728Z,6972
2017-10-12T12:57:11.384Z,6852
2017-10-12T12:58:11.378Z,6980
2017-10-12T12:59:11.711Z,7004
2017-10-12T13:00:11.394Z,6732
2017-10-12T13:01:11.703Z,6512
2017-10-12T13:02:11.696Z,6348
2017-10-12T13:03:11.696Z,6136
2017-10-12T13:04:11.690Z,6020
2017-10-12T13:05:11.686Z,5940
2017-10-12T13:06:11.349Z,6012
2017-10-12T13:07:11.680Z,6164
2017-10-12T13:08:11.707Z,6516
2017-10-12T13:09:11.671Z,7128
2017-10-12T13:10:11.340Z,8084
2017-10-12T13:11:11.660Z,9024
2017-10-12T13:12:11.660Z,9576
2017-10-12T13:13:11.671Z,9688
2017-10-12T13:14:10.984Z,9460
2017-10-12T13:15:11.320Z,9200
2017-10-12T13:16:10.983Z,9076
2017-10-12T13:17:11.645Z,9204
2017-10-12T13:18:11.310Z,9364
2017-10-12T13:19:11.630Z,9392
2017-10-12T13:20:10.965Z,9328
2017-10-12T13:21:11.292Z,10664
2017-10-12T13:22:11.624Z,9732
2017-10-12T13:23:11.620Z,8832
2017-10-12T13:24:11.282Z,8164
2017-10-12T13:25:11.608Z,8608
2017-10-12T13:26:11.503Z,8556
2017-10-12T13:27:10.938Z,7988
2017-10-12T13:28:11.265Z,9324
2017-10-12T13:29:11.611Z,9920
2017-10-12T13:30:11.592Z,8680
2017-10-12T13:31:11.259Z,8244
2017-10-12T13:32:11.598Z,8452
2017-10-12T13:33:11.578Z,9136
2017-10-12T13:34:11.827Z,8624
2017-10-12T13:35:10.908Z,7788
2017-10-12T13:36:11.580Z,7328
2017-10-12T13:37:11.775Z,7600
2017-10-12T13:38:11.234Z,7712
2017-10-12T13:39:11.229Z,8364
2017-10-12T13:40:10.894Z,9052
2017-10-12T13:41:11.227Z,9160
2017-10-12T13:42:11.565Z,8992
2017-10-12T13:43:11.218Z,8820
2017-10-12T13:44:11.439Z,8504
2017-10-12T13:45:11.573Z,7852
2017-10-12T13:46:11.212Z,7548